Etusivu
METAR-TAF:

METAR-TAF

Lentoasemat :

Wakkanai, Japani

Leveyspiiri: 45-24N, Pituuspiiri: 141-48E, korkeus merenpinnasta: 8 m

Tämänhetkinen sää

Tämä raportti tehtiin 1 tunti ja 11 minuuttia sitten, kello 06.00 UTC
Tuuli 15 kn lännestä
Lämpötila -2°C
Kosteus 50%
Ilmanpaine 1024 hPa
Näkyvyys 10 km tai enemmän
Muutamia pilviä 3000 ft:n korkeudessa
Hajanaisia pilviä 5000 ft:n korkeudessa

METAR: RJCW 200600Z 26015KT 9999 FEW030 SCT050 M02/M11 Q1024

Aika: 16:11 (07:11 UTC)


TAF: puuttuu

Säähavainnot ja -ennusteet yli 4000 lentoasemalta (METAR- ja TAF-raportit).

Käytössä olevat sääasemat on merkitty karttaan keltaisilla ja punaisilla pisteillä.

Aseta hiiri pisteen päälle nähdäksesi sääaseman nimen.

Klikkaa sitten nähdäksesi säähavainnot ja -ennusteet.

Kartan vaihtaminen: klikkaa mustalla rastilla varustettuja vihreitä pisteitä, niin voit zoomata sisään; viivalla varustettua vihreää pistettä, niin voit zoomata ulos tai vihreitä nuolia, niin pääset viereisille kartoille.


METAR-TAF: